sensor_id;sensor_type;location;lat;lon;timestamp;pressure;altitude;pressure_sealevel;temperature;humidity
37304;BME280;23188;51.188;16.374;2023-02-21T00:00:06;99679.23;;;10.72;88.97
37304;BME280;23188;51.188;16.374;2023-02-21T00:04:46;99683.51;;;10.76;89.33
37304;BME280;23188;51.188;16.374;2023-02-21T00:09:07;99674.41;;;10.71;89.63
37304;BME280;23188;51.188;16.374;2023-02-21T00:13:27;99668.56;;;10.73;89.86
37304;BME280;23188;51.188;16.374;2023-02-21T00:17:47;99672.11;;;10.73;90.31
37304;BME280;23188;51.188;16.374;2023-02-21T00:22:07;99661.82;;;10.65;91.42
37304;BME280;23188;51.188;16.374;2023-02-21T00:26:27;99668.59;;;10.65;92.05
37304;BME280;23188;51.188;16.374;2023-02-21T00:30:47;99661.58;;;10.60;92.75
37304;BME280;23188;51.188;16.374;2023-02-21T00:35:08;99669.66;;;10.61;93.41
37304;BME280;23188;51.188;16.374;2023-02-21T00:39:28;99669.19;;;10.58;93.83
37304;BME280;23188;51.188;16.374;2023-02-21T00:43:48;99681.63;;;10.62;93.78
37304;BME280;23188;51.188;16.374;2023-02-21T00:48:08;99683.89;;;10.60;94.26
37304;BME280;23188;51.188;16.374;2023-02-21T00:52:28;99685.14;;;10.62;94.83
37304;BME280;23188;51.188;16.374;2023-02-21T00:56:48;99681.75;;;10.58;95.37
37304;BME280;23188;51.188;16.374;2023-02-21T01:01:08;99684.41;;;10.56;95.83
37304;BME280;23188;51.188;16.374;2023-02-21T01:05:29;99685.25;;;10.53;96.52
37304;BME280;23188;51.188;16.374;2023-02-21T01:09:50;99690.41;;;10.45;97.76
37304;BME280;23188;51.188;16.374;2023-02-21T01:14:11;99688.70;;;10.40;98.79
37304;BME280;23188;51.188;16.374;2023-02-21T01:18:33;99685.02;;;10.37;99.51
37304;BME280;23188;51.188;16.374;2023-02-21T01:22:54;99680.27;;;10.35;99.96
37304;BME280;23188;51.188;16.374;2023-02-21T01:27:14;99684.73;;;10.31;100.00
37304;BME280;23188;51.188;16.374;2023-02-21T01:31:34;99676.90;;;10.23;100.00
37304;BME280;23188;51.188;16.374;2023-02-21T01:35:55;99666.58;;;10.20;100.00
37304;BME280;23188;51.188;16.374;2023-02-21T01:40:15;99665.73;;;10.17;100.00
37304;BME280;23188;51.188;16.374;2023-02-21T01:44:45;99670.45;;;10.10;100.00
37304;BME280;23188;51.188;16.374;2023-02-21T01:49:16;99662.92;;;10.09;100.00
37304;BME280;23188;51.188;16.374;2023-02-21T01:53:37;99666.91;;;10.08;100.00
37304;BME280;23188;51.188;16.374;2023-02-21T01:57:57;99669.41;;;10.04;100.00
37304;BME280;23188;51.188;16.374;2023-02-21T02:02:43;99669.01;;;10.02;100.00
37304;BME280;23188;51.188;16.374;2023-02-21T02:07:05;99663.11;;;10.03;100.00
37304;BME280;23188;51.188;16.374;2023-02-21T02:11:53;99652.49;;;10.05;100.00
37304;BME280;23188;51.188;16.374;2023-02-21T02:16:38;99646.77;;;10.09;100.00
37304;BME280;23188;51.188;16.374;2023-02-21T02:25:55;99645.09;;;10.10;100.00
37304;BME280;23188;51.188;16.374;2023-02-21T02:46:44;99622.11;;;10.09;100.00
37304;BME280;23188;51.188;16.374;2023-02-21T02:50:49;99630.38;;;10.12;100.00
37304;BME280;23188;51.188;16.374;2023-02-21T02:55:04;99625.52;;;10.11;100.00
37304;BME280;23188;51.188;16.374;2023-02-21T02:59:11;99623.66;;;10.08;100.00
37304;BME280;23188;51.188;16.374;2023-02-21T03:11:55;99628.66;;;10.10;100.00
37304;BME280;23188;51.188;16.374;2023-02-21T03:20:56;99627.73;;;10.12;100.00
37304;BME280;23188;51.188;16.374;2023-02-21T03:25:01;99611.68;;;10.15;100.00
37304;BME280;23188;51.188;16.374;2023-02-21T03:29:03;99613.55;;;10.16;100.00
37304;BME280;23188;51.188;16.374;2023-02-21T03:33:05;99619.17;;;10.26;100.00
37304;BME280;23188;51.188;16.374;2023-02-21T03:37:09;99619.30;;;10.23;100.00
37304;BME280;23188;51.188;16.374;2023-02-21T03:41:11;99602.17;;;10.24;100.00
37304;BME280;23188;51.188;16.374;2023-02-21T03:45:14;99622.06;;;10.32;100.00
37304;BME280;23188;51.188;16.374;2023-02-21T03:49:15;99624.09;;;10.29;100.00
37304;BME280;23188;51.188;16.374;2023-02-21T03:53:17;99627.66;;;10.37;100.00
37304;BME280;23188;51.188;16.374;2023-02-21T03:57:18;99613.23;;;10.34;100.00
37304;BME280;23188;51.188;16.374;2023-02-21T04:01:20;99619.89;;;10.37;100.00
37304;BME280;23188;51.188;16.374;2023-02-21T04:05:22;99626.20;;;10.37;100.00
37304;BME280;23188;51.188;16.374;2023-02-21T04:09:23;99616.52;;;10.45;99.97
37304;BME280;23188;51.188;16.374;2023-02-21T04:13:26;99626.31;;;10.46;99.91
37304;BME280;23188;51.188;16.374;2023-02-21T04:17:28;99634.30;;;10.44;99.83
37304;BME280;23188;51.188;16.374;2023-02-21T04:21:30;99643.06;;;10.37;99.93
37304;BME280;23188;51.188;16.374;2023-02-21T04:25:35;99643.42;;;10.35;100.00
37304;BME280;23188;51.188;16.374;2023-02-21T04:29:37;99645.52;;;10.31;100.00
37304;BME280;23188;51.188;16.374;2023-02-21T04:33:39;99654.70;;;10.26;100.00
37304;BME280;23188;51.188;16.374;2023-02-21T04:37:41;99645.51;;;10.26;100.00
37304;BME280;23188;51.188;16.374;2023-02-21T04:41:45;99651.20;;;10.25;100.00
37304;BME280;23188;51.188;16.374;2023-02-21T04:45:46;99667.73;;;10.27;100.00
37304;BME280;23188;51.188;16.374;2023-02-21T04:49:48;99656.82;;;10.30;100.00
37304;BME280;23188;51.188;16.374;2023-02-21T04:53:53;99643.09;;;10.31;100.00
37304;BME280;23188;51.188;16.374;2023-02-21T04:57:55;99657.95;;;10.25;100.00
37304;BME280;23188;51.188;16.374;2023-02-21T05:01:57;99645.59;;;10.28;100.00
37304;BME280;23188;51.188;16.374;2023-02-21T05:06:04;99647.52;;;10.27;100.00
37304;BME280;23188;51.188;16.374;2023-02-21T05:10:06;99645.56;;;10.25;100.00
37304;BME280;23188;51.188;16.374;2023-02-21T05:14:08;99655.16;;;10.20;100.00
37304;BME280;23188;51.188;16.374;2023-02-21T05:18:11;99644.61;;;10.18;100.00
37304;BME280;23188;51.188;16.374;2023-02-21T05:22:13;99660.92;;;10.23;100.00
37304;BME280;23188;51.188;16.374;2023-02-21T05:26:23;99660.92;;;10.19;100.00
37304;BME280;23188;51.188;16.374;2023-02-21T05:30:25;99663.19;;;10.24;100.00
37304;BME280;23188;51.188;16.374;2023-02-21T05:34:27;99673.99;;;10.26;100.00
37304;BME280;23188;51.188;16.374;2023-02-21T05:38:29;99676.18;;;10.25;100.00
37304;BME280;23188;51.188;16.374;2023-02-21T05:42:31;99673.14;;;10.17;100.00
37304;BME280;23188;51.188;16.374;2023-02-21T05:46:34;99672.25;;;10.16;100.00
37304;BME280;23188;51.188;16.374;2023-02-21T05:50:36;99685.40;;;10.13;100.00
37304;BME280;23188;51.188;16.374;2023-02-21T05:54:39;99692.61;;;10.10;100.00
37304;BME280;23188;51.188;16.374;2023-02-21T05:58:43;99696.92;;;10.19;100.00
37304;BME280;23188;51.188;16.374;2023-02-21T06:02:45;99704.81;;;10.12;100.00
37304;BME280;23188;51.188;16.374;2023-02-21T06:06:47;99686.50;;;10.15;100.00
37304;BME280;23188;51.188;16.374;2023-02-21T06:10:49;99701.37;;;10.13;100.00
37304;BME280;23188;51.188;16.374;2023-02-21T06:14:51;99701.45;;;10.10;100.00
37304;BME280;23188;51.188;16.374;2023-02-21T06:18:54;99703.53;;;10.18;100.00
37304;BME280;23188;51.188;16.374;2023-02-21T06:22:57;99714.59;;;10.24;100.00
37304;BME280;23188;51.188;16.374;2023-02-21T06:26:58;99717.06;;;10.26;100.00
37304;BME280;23188;51.188;16.374;2023-02-21T06:31:00;99715.60;;;10.26;100.00
37304;BME280;23188;51.188;16.374;2023-02-21T06:35:03;99717.86;;;10.31;100.00
37304;BME280;23188;51.188;16.374;2023-02-21T06:39:05;99723.56;;;10.32;100.00
37304;BME280;23188;51.188;16.374;2023-02-21T06:43:09;99722.23;;;10.35;100.00
37304;BME280;23188;51.188;16.374;2023-02-21T06:47:10;99722.34;;;10.26;100.00
37304;BME280;23188;51.188;16.374;2023-02-21T06:51:12;99746.78;;;10.16;100.00
37304;BME280;23188;51.188;16.374;2023-02-21T06:55:21;99749.48;;;10.10;100.00
37304;BME280;23188;51.188;16.374;2023-02-21T06:59:29;99754.30;;;10.05;100.00
37304;BME280;23188;51.188;16.374;2023-02-21T07:03:31;99748.37;;;10.10;100.00
37304;BME280;23188;51.188;16.374;2023-02-21T07:07:32;99745.34;;;10.21;100.00
37304;BME280;23188;51.188;16.374;2023-02-21T07:11:35;99756.27;;;10.23;100.00
37304;BME280;23188;51.188;16.374;2023-02-21T07:15:37;99765.94;;;10.16;100.00
37304;BME280;23188;51.188;16.374;2023-02-21T07:19:39;99775.98;;;10.14;100.00
37304;BME280;23188;51.188;16.374;2023-02-21T07:23:43;99784.45;;;10.05;100.00
37304;BME280;23188;51.188;16.374;2023-02-21T07:27:49;99774.48;;;10.11;100.00
37304;BME280;23188;51.188;16.374;2023-02-21T07:31:51;99783.55;;;10.17;100.00
37304;BME280;23188;51.188;16.374;2023-02-21T07:35:53;99783.34;;;10.16;100.00
37304;BME280;23188;51.188;16.374;2023-02-21T07:39:55;99789.65;;;10.29;100.00
37304;BME280;23188;51.188;16.374;2023-02-21T07:43:58;99782.25;;;10.40;100.00
37304;BME280;23188;51.188;16.374;2023-02-21T07:47:59;99783.90;;;10.46;100.00
37304;BME280;23188;51.188;16.374;2023-02-21T07:52:01;99781.14;;;10.41;100.00
37304;BME280;23188;51.188;16.374;2023-02-21T07:56:03;99796.48;;;10.46;100.00
37304;BME280;23188;51.188;16.374;2023-02-21T08:00:06;99793.52;;;10.49;100.00
37304;BME280;23188;51.188;16.374;2023-02-21T08:04:07;99793.77;;;10.57;100.00
37304;BME280;23188;51.188;16.374;2023-02-21T08:08:09;99797.08;;;10.67;100.00
37304;BME280;23188;51.188;16.374;2023-02-21T08:12:11;99794.37;;;10.74;100.00
37304;BME280;23188;51.188;16.374;2023-02-21T08:16:14;99794.77;;;10.81;100.00
37304;BME280;23188;51.188;16.374;2023-02-21T08:20:16;99803.05;;;10.92;100.00
37304;BME280;23188;51.188;16.374;2023-02-21T08:24:18;99794.90;;;11.07;100.00
37304;BME280;23188;51.188;16.374;2023-02-21T08:28:20;99790.10;;;11.15;100.00
37304;BME280;23188;51.188;16.374;2023-02-21T08:32:22;99802.63;;;11.16;100.00
37304;BME280;23188;51.188;16.374;2023-02-21T08:36:32;99807.83;;;11.06;100.00
37304;BME280;23188;51.188;16.374;2023-02-21T08:40:35;99809.61;;;11.04;100.00
37304;BME280;23188;51.188;16.374;2023-02-21T08:44:37;99814.98;;;10.95;100.00
37304;BME280;23188;51.188;16.374;2023-02-21T08:48:38;99818.93;;;10.96;100.00
37304;BME280;23188;51.188;16.374;2023-02-21T08:52:40;99822.59;;;11.07;100.00
37304;BME280;23188;51.188;16.374;2023-02-21T08:56:42;99820.85;;;11.09;100.00
37304;BME280;23188;51.188;16.374;2023-02-21T09:00:44;99832.48;;;11.06;100.00
37304;BME280;23188;51.188;16.374;2023-02-21T09:04:46;99831.02;;;10.97;100.00
37304;BME280;23188;51.188;16.374;2023-02-21T09:08:48;99821.13;;;10.96;100.00
37304;BME280;23188;51.188;16.374;2023-02-21T09:12:49;99831.42;;;10.96;100.00
37304;BME280;23188;51.188;16.374;2023-02-21T09:16:51;99824.88;;;11.01;100.00
37304;BME280;23188;51.188;16.374;2023-02-21T09:20:54;99836.14;;;11.10;100.00
37304;BME280;23188;51.188;16.374;2023-02-21T09:24:58;99830.16;;;11.23;100.00
37304;BME280;23188;51.188;16.374;2023-02-21T09:29:01;99834.64;;;11.33;100.00
37304;BME280;23188;51.188;16.374;2023-02-21T09:33:02;99835.85;;;11.37;100.00
37304;BME280;23188;51.188;16.374;2023-02-21T09:37:04;99833.06;;;11.38;100.00
37304;BME280;23188;51.188;16.374;2023-02-21T09:41:08;99854.71;;;11.15;100.00
37304;BME280;23188;51.188;16.374;2023-02-21T09:45:15;99857.39;;;10.91;100.00
37304;BME280;23188;51.188;16.374;2023-02-21T09:49:24;99859.12;;;10.54;100.00
37304;BME280;23188;51.188;16.374;2023-02-21T09:53:33;99862.49;;;10.49;100.00
37304;BME280;23188;51.188;16.374;2023-02-21T09:57:35;99867.00;;;10.59;100.00
37304;BME280;23188;51.188;16.374;2023-02-21T10:02:08;99851.29;;;10.58;100.00
37304;BME280;23188;51.188;16.374;2023-02-21T10:10:36;99862.87;;;10.53;100.00
37304;BME280;23188;51.188;16.374;2023-02-21T10:19:20;99861.40;;;10.68;100.00
37304;BME280;23188;51.188;16.374;2023-02-21T10:23:27;99861.36;;;10.79;100.00
37304;BME280;23188;51.188;16.374;2023-02-21T10:27:33;99866.39;;;10.92;100.00
37304;BME280;23188;51.188;16.374;2023-02-21T10:31:38;99866.36;;;10.94;100.00
37304;BME280;23188;51.188;16.374;2023-02-21T10:35:42;99880.16;;;11.06;100.00
37304;BME280;23188;51.188;16.374;2023-02-21T10:39:49;99872.52;;;11.18;100.00
37304;BME280;23188;51.188;16.374;2023-02-21T10:43:55;99892.00;;;11.15;100.00
37304;BME280;23188;51.188;16.374;2023-02-21T10:48:03;99888.08;;;10.99;100.00
37304;BME280;23188;51.188;16.374;2023-02-21T11:04:29;99879.20;;;10.97;100.00
37304;BME280;23188;51.188;16.374;2023-02-21T11:08:40;99893.63;;;10.88;100.00
37304;BME280;23188;51.188;16.374;2023-02-21T11:12:42;99903.10;;;10.72;100.00
37304;BME280;23188;51.188;16.374;2023-02-21T11:16:44;99896.23;;;10.57;100.00
37304;BME280;23188;51.188;16.374;2023-02-21T11:20:48;99910.34;;;10.54;100.00
37304;BME280;23188;51.188;16.374;2023-02-21T11:28:52;99917.04;;;10.52;100.00
37304;BME280;23188;51.188;16.374;2023-02-21T11:32:56;99915.66;;;10.60;100.00
37304;BME280;23188;51.188;16.374;2023-02-21T11:37:02;99917.88;;;10.59;100.00
37304;BME280;23188;51.188;16.374;2023-02-21T11:45:28;99916.35;;;10.64;100.00
37304;BME280;23188;51.188;16.374;2023-02-21T11:53:40;99920.29;;;10.94;100.00
37304;BME280;23188;51.188;16.374;2023-02-21T11:58:05;99918.62;;;11.31;100.00
37304;BME280;23188;51.188;16.374;2023-02-21T12:10:49;99906.23;;;11.96;100.00
37304;BME280;23188;51.188;16.374;2023-02-21T12:15:25;99905.73;;;11.98;100.00
37304;BME280;23188;51.188;16.374;2023-02-21T12:33:02;99891.91;;;12.06;100.00
37304;BME280;23188;51.188;16.374;2023-02-21T12:50:24;99891.34;;;12.00;100.00
37304;BME280;23188;51.188;16.374;2023-02-21T12:58:48;99893.52;;;11.98;100.00
37304;BME280;23188;51.188;16.374;2023-02-21T13:03:10;99897.34;;;11.85;100.00
37304;BME280;23188;51.188;16.374;2023-02-21T13:07:35;99899.25;;;11.76;100.00
37304;BME280;23188;51.188;16.374;2023-02-21T13:11:58;99901.61;;;11.85;100.00
37304;BME280;23188;51.188;16.374;2023-02-21T13:16:04;99903.06;;;11.94;100.00
37304;BME280;23188;51.188;16.374;2023-02-21T13:20:09;99903.16;;;11.99;100.00
37304;BME280;23188;51.188;16.374;2023-02-21T13:24:27;99894.44;;;12.03;100.00
37304;BME280;23188;51.188;16.374;2023-02-21T13:28:32;99901.76;;;11.93;100.00
37304;BME280;23188;51.188;16.374;2023-02-21T13:32:38;99897.25;;;11.76;100.00
37304;BME280;23188;51.188;16.374;2023-02-21T13:36:42;99909.24;;;11.66;100.00
37304;BME280;23188;51.188;16.374;2023-02-21T13:41:07;99908.34;;;11.85;100.00
37304;BME280;23188;51.188;16.374;2023-02-21T13:45:21;99904.61;;;12.16;100.00
37304;BME280;23188;51.188;16.374;2023-02-21T13:54:07;99891.14;;;12.31;100.00
37304;BME280;23188;51.188;16.374;2023-02-21T14:02:20;99901.54;;;12.28;100.00
37304;BME280;23188;51.188;16.374;2023-02-21T14:06:33;99891.60;;;12.41;100.00
37304;BME280;23188;51.188;16.374;2023-02-21T14:15:07;99882.52;;;12.49;99.62
37304;BME280;23188;51.188;16.374;2023-02-21T14:19:11;99885.36;;;12.33;99.93
37304;BME280;23188;51.188;16.374;2023-02-21T14:23:18;99891.84;;;12.16;100.00
37304;BME280;23188;51.188;16.374;2023-02-21T14:31:45;99908.68;;;11.97;100.00
37304;BME280;23188;51.188;16.374;2023-02-21T14:36:08;99915.73;;;11.84;100.00
37304;BME280;23188;51.188;16.374;2023-02-21T14:44:46;99918.60;;;11.60;100.00
37304;BME280;23188;51.188;16.374;2023-02-21T14:53:23;99920.55;;;11.43;100.00
37304;BME280;23188;51.188;16.374;2023-02-21T15:06:07;99938.26;;;11.29;100.00
37304;BME280;23188;51.188;16.374;2023-02-21T15:10:23;99942.95;;;11.26;100.00
37304;BME280;23188;51.188;16.374;2023-02-21T15:14:28;99940.47;;;11.19;100.00
37304;BME280;23188;51.188;16.374;2023-02-21T15:18:33;99944.35;;;11.11;100.00
37304;BME280;23188;51.188;16.374;2023-02-21T15:22:35;99950.25;;;11.06;100.00
37304;BME280;23188;51.188;16.374;2023-02-21T15:26:37;99944.80;;;10.99;100.00
37304;BME280;23188;51.188;16.374;2023-02-21T15:30:40;99951.09;;;11.01;100.00
37304;BME280;23188;51.188;16.374;2023-02-21T15:34:44;99946.29;;;10.97;100.00
37304;BME280;23188;51.188;16.374;2023-02-21T15:39:00;99953.55;;;10.85;100.00
37304;BME280;23188;51.188;16.374;2023-02-21T15:43:04;99951.52;;;10.88;100.00
37304;BME280;23188;51.188;16.374;2023-02-21T15:47:10;99950.54;;;10.83;100.00
37304;BME280;23188;51.188;16.374;2023-02-21T15:51:13;99956.49;;;10.79;100.00
37304;BME280;23188;51.188;16.374;2023-02-21T15:59:25;99967.90;;;10.75;98.93
37304;BME280;23188;51.188;16.374;2023-02-21T16:03:40;99969.73;;;10.76;97.68
37304;BME280;23188;51.188;16.374;2023-02-21T16:07:42;99973.20;;;10.73;96.20
37304;BME280;23188;51.188;16.374;2023-02-21T16:16:12;99979.38;;;10.55;96.96
37304;BME280;23188;51.188;16.374;2023-02-21T16:20:20;99982.14;;;10.45;97.70
37304;BME280;23188;51.188;16.374;2023-02-21T16:24:29;99994.66;;;10.35;98.85
37304;BME280;23188;51.188;16.374;2023-02-21T16:28:31;100004.09;;;10.24;100.00
37304;BME280;23188;51.188;16.374;2023-02-21T16:32:34;100013.80;;;10.25;100.00
37304;BME280;23188;51.188;16.374;2023-02-21T16:36:36;100016.63;;;10.12;100.00
37304;BME280;23188;51.188;16.374;2023-02-21T16:40:39;100022.37;;;10.05;100.00
37304;BME280;23188;51.188;16.374;2023-02-21T16:44:44;100028.88;;;9.97;100.00
37304;BME280;23188;51.188;16.374;2023-02-21T16:48:48;100032.98;;;9.90;100.00
37304;BME280;23188;51.188;16.374;2023-02-21T16:52:50;100044.44;;;9.82;100.00
37304;BME280;23188;51.188;16.374;2023-02-21T16:56:52;100052.42;;;9.76;100.00
37304;BME280;23188;51.188;16.374;2023-02-21T17:00:56;100066.48;;;9.73;100.00
37304;BME280;23188;51.188;16.374;2023-02-21T17:04:59;100071.80;;;9.70;100.00
37304;BME280;23188;51.188;16.374;2023-02-21T17:09:00;100080.64;;;9.64;100.00
37304;BME280;23188;51.188;16.374;2023-02-21T17:13:02;100081.58;;;9.63;100.00
37304;BME280;23188;51.188;16.374;2023-02-21T17:17:05;100080.41;;;9.58;100.00
37304;BME280;23188;51.188;16.374;2023-02-21T17:21:06;100083.66;;;9.57;100.00
37304;BME280;23188;51.188;16.374;2023-02-21T17:25:08;100088.83;;;9.59;100.00
37304;BME280;23188;51.188;16.374;2023-02-21T17:29:11;100094.27;;;9.57;100.00
37304;BME280;23188;51.188;16.374;2023-02-21T17:33:14;100094.77;;;9.53;100.00
37304;BME280;23188;51.188;16.374;2023-02-21T17:37:16;100107.25;;;9.56;100.00
37304;BME280;23188;51.188;16.374;2023-02-21T17:41:18;100111.33;;;9.56;100.00
37304;BME280;23188;51.188;16.374;2023-02-21T17:45:21;100116.83;;;9.52;100.00
37304;BME280;23188;51.188;16.374;2023-02-21T17:49:24;100121.02;;;9.50;100.00
37304;BME280;23188;51.188;16.374;2023-02-21T17:53:27;100120.84;;;9.50;100.00
37304;BME280;23188;51.188;16.374;2023-02-21T17:57:28;100126.09;;;9.53;100.00
37304;BME280;23188;51.188;16.374;2023-02-21T18:01:35;100126.98;;;9.53;100.00
37304;BME280;23188;51.188;16.374;2023-02-21T18:05:36;100135.55;;;9.50;100.00
37304;BME280;23188;51.188;16.374;2023-02-21T18:09:38;100138.24;;;9.45;100.00
37304;BME280;23188;51.188;16.374;2023-02-21T18:13:40;100135.27;;;9.40;100.00
37304;BME280;23188;51.188;16.374;2023-02-21T18:17:41;100138.20;;;9.37;100.00
37304;BME280;23188;51.188;16.374;2023-02-21T18:21:46;100144.48;;;9.31;100.00
37304;BME280;23188;51.188;16.374;2023-02-21T18:25:48;100144.09;;;9.29;100.00
37304;BME280;23188;51.188;16.374;2023-02-21T18:29:49;100144.26;;;9.36;100.00
37304;BME280;23188;51.188;16.374;2023-02-21T18:33:55;100147.90;;;9.39;100.00
37304;BME280;23188;51.188;16.374;2023-02-21T18:37:57;100150.49;;;9.42;100.00
37304;BME280;23188;51.188;16.374;2023-02-21T18:41:59;100154.48;;;9.32;100.00
37304;BME280;23188;51.188;16.374;2023-02-21T18:46:01;100158.45;;;9.33;100.00
37304;BME280;23188;51.188;16.374;2023-02-21T18:50:04;100162.86;;;9.29;100.00
37304;BME280;23188;51.188;16.374;2023-02-21T18:54:06;100163.29;;;9.26;100.00
37304;BME280;23188;51.188;16.374;2023-02-21T18:58:09;100167.27;;;9.22;100.00
37304;BME280;23188;51.188;16.374;2023-02-21T19:02:13;100173.14;;;9.22;100.00
37304;BME280;23188;51.188;16.374;2023-02-21T19:06:17;100175.11;;;9.21;100.00
37304;BME280;23188;51.188;16.374;2023-02-21T19:10:21;100179.48;;;9.18;100.00
37304;BME280;23188;51.188;16.374;2023-02-21T19:14:23;100174.82;;;9.14;100.00
37304;BME280;23188;51.188;16.374;2023-02-21T19:18:25;100174.81;;;9.09;100.00
37304;BME280;23188;51.188;16.374;2023-02-21T19:22:29;100179.05;;;9.11;100.00
37304;BME280;23188;51.188;16.374;2023-02-21T19:26:31;100185.36;;;9.10;100.00
37304;BME280;23188;51.188;16.374;2023-02-21T19:30:33;100185.24;;;9.09;100.00
37304;BME280;23188;51.188;16.374;2023-02-21T19:34:37;100187.23;;;9.07;100.00
37304;BME280;23188;51.188;16.374;2023-02-21T19:38:39;100192.22;;;8.99;100.00
37304;BME280;23188;51.188;16.374;2023-02-21T19:42:41;100203.23;;;8.98;100.00
37304;BME280;23188;51.188;16.374;2023-02-21T19:46:43;100212.77;;;8.89;100.00
37304;BME280;23188;51.188;16.374;2023-02-21T19:50:45;100214.19;;;8.73;100.00
37304;BME280;23188;51.188;16.374;2023-02-21T19:54:48;100217.20;;;8.63;100.00
37304;BME280;23188;51.188;16.374;2023-02-21T19:58:49;100213.64;;;8.49;100.00
37304;BME280;23188;51.188;16.374;2023-02-21T20:02:53;100214.38;;;8.33;100.00
37304;BME280;23188;51.188;16.374;2023-02-21T20:06:56;100212.40;;;8.17;100.00
37304;BME280;23188;51.188;16.374;2023-02-21T20:10:58;100223.75;;;8.16;100.00
37304;BME280;23188;51.188;16.374;2023-02-21T20:14:59;100225.69;;;8.24;100.00
37304;BME280;23188;51.188;16.374;2023-02-21T20:19:02;100230.20;;;8.27;100.00
37304;BME280;23188;51.188;16.374;2023-02-21T20:23:03;100231.44;;;8.35;100.00
37304;BME280;23188;51.188;16.374;2023-02-21T20:27:05;100234.46;;;8.44;100.00
37304;BME280;23188;51.188;16.374;2023-02-21T20:31:07;100240.45;;;8.37;100.00
37304;BME280;23188;51.188;16.374;2023-02-21T20:35:11;100239.05;;;8.12;100.00
37304;BME280;23188;51.188;16.374;2023-02-21T20:39:19;100243.81;;;7.98;100.00
37304;BME280;23188;51.188;16.374;2023-02-21T20:43:22;100242.67;;;7.89;100.00
37304;BME280;23188;51.188;16.374;2023-02-21T20:47:24;100240.21;;;7.91;100.00
37304;BME280;23188;51.188;16.374;2023-02-21T20:51:34;100244.91;;;7.97;100.00
37304;BME280;23188;51.188;16.374;2023-02-21T20:55:36;100244.02;;;7.87;100.00
37304;BME280;23188;51.188;16.374;2023-02-21T20:59:38;100246.68;;;7.74;100.00
37304;BME280;23188;51.188;16.374;2023-02-21T21:03:40;100255.10;;;7.67;100.00
37304;BME280;23188;51.188;16.374;2023-02-21T21:07:43;100251.42;;;7.80;100.00
37304;BME280;23188;51.188;16.374;2023-02-21T21:11:45;100253.49;;;7.90;100.00
37304;BME280;23188;51.188;16.374;2023-02-21T21:15:47;100256.61;;;7.99;100.00
37304;BME280;23188;51.188;16.374;2023-02-21T21:19:49;100260.67;;;8.09;100.00
37304;BME280;23188;51.188;16.374;2023-02-21T21:23:51;100259.77;;;8.11;100.00
37304;BME280;23188;51.188;16.374;2023-02-21T21:27:53;100262.05;;;8.09;100.00
37304;BME280;23188;51.188;16.374;2023-02-21T21:31:55;100265.41;;;8.04;100.00
37304;BME280;23188;51.188;16.374;2023-02-21T21:35:59;100260.81;;;7.97;100.00
37304;BME280;23188;51.188;16.374;2023-02-21T21:40:03;100266.13;;;7.89;100.00
37304;BME280;23188;51.188;16.374;2023-02-21T21:44:20;100266.48;;;7.81;100.00
37304;BME280;23188;51.188;16.374;2023-02-21T21:48:23;100274.24;;;7.79;100.00
37304;BME280;23188;51.188;16.374;2023-02-21T21:52:24;100274.32;;;7.78;100.00
37304;BME280;23188;51.188;16.374;2023-02-21T21:56:28;100278.67;;;7.53;100.00
37304;BME280;23188;51.188;16.374;2023-02-21T22:00:30;100277.49;;;7.37;100.00
37304;BME280;23188;51.188;16.374;2023-02-21T22:04:41;100283.82;;;7.21;100.00
37304;BME280;23188;51.188;16.374;2023-02-21T22:08:43;100285.02;;;7.01;100.00
37304;BME280;23188;51.188;16.374;2023-02-21T22:12:46;100286.02;;;6.88;100.00
37304;BME280;23188;51.188;16.374;2023-02-21T22:16:51;100285.12;;;6.89;100.00
37304;BME280;23188;51.188;16.374;2023-02-21T22:20:53;100289.02;;;6.78;100.00
37304;BME280;23188;51.188;16.374;2023-02-21T22:24:56;100289.67;;;6.75;100.00
37304;BME280;23188;51.188;16.374;2023-02-21T22:28:58;100292.40;;;6.77;100.00
37304;BME280;23188;51.188;16.374;2023-02-21T22:33:00;100295.08;;;6.79;100.00
37304;BME280;23188;51.188;16.374;2023-02-21T22:37:02;100298.95;;;6.74;100.00
37304;BME280;23188;51.188;16.374;2023-02-21T22:41:04;100295.25;;;6.79;100.00
37304;BME280;23188;51.188;16.374;2023-02-21T22:45:06;100291.43;;;6.81;100.00
37304;BME280;23188;51.188;16.374;2023-02-21T22:49:10;100290.64;;;6.95;100.00
37304;BME280;23188;51.188;16.374;2023-02-21T22:53:13;100289.00;;;7.02;100.00
37304;BME280;23188;51.188;16.374;2023-02-21T22:57:18;100291.82;;;7.10;100.00
37304;BME280;23188;51.188;16.374;2023-02-21T23:01:22;100300.65;;;7.12;100.00
37304;BME280;23188;51.188;16.374;2023-02-21T23:05:27;100302.56;;;7.10;100.00
37304;BME280;23188;51.188;16.374;2023-02-21T23:09:29;100308.48;;;7.09;100.00
37304;BME280;23188;51.188;16.374;2023-02-21T23:13:33;100310.65;;;7.08;100.00
37304;BME280;23188;51.188;16.374;2023-02-21T23:17:35;100313.07;;;7.03;100.00
37304;BME280;23188;51.188;16.374;2023-02-21T23:21:48;100314.41;;;6.99;100.00
37304;BME280;23188;51.188;16.374;2023-02-21T23:25:52;100317.59;;;7.01;100.00
37304;BME280;23188;51.188;16.374;2023-02-21T23:29:54;100321.18;;;7.14;100.00
37304;BME280;23188;51.188;16.374;2023-02-21T23:33:56;100320.32;;;7.19;100.00
37304;BME280;23188;51.188;16.374;2023-02-21T23:37:57;100318.19;;;7.24;100.00
37304;BME280;23188;51.188;16.374;2023-02-21T23:42:00;100321.95;;;7.29;100.00